Time;durP1;ratioP1;P1;durP2;ratioP2;P2;SDS_P1;SDS_P2;PMS_P1;PMS_P2;Temp;Humidity;BMP_temperature;BMP_pressure;BME280_temperature;BME280_humidity;BME280_pressure;Samples;Min_cycle;Max_cycle;Signal;HPM_P1;HPM_P2
2023/07/16 00:01:32;;;;;;;6.40;2.00;;;;;;;22.49;61.17;99732.67;110078;1271;22192;-58
2023/07/16 00:04:03;;;;;;;8.60;2.10;;;;;;;22.46;61.18;99725.45;110127;1270;22341;-60
2023/07/16 00:06:34;;;;;;;10.00;2.00;;;;;;;22.45;61.35;99727.77;110164;1278;22178;-58
2023/07/16 00:09:05;;;;;;;9.10;2.10;;;;;;;22.42;61.63;99726.98;110085;1271;23204;-60
2023/07/16 00:11:36;;;;;;;11.10;2.20;;;;;;;22.37;61.78;99721.42;110092;1263;22246;-58
2023/07/16 00:14:07;;;;;;;8.80;2.20;;;;;;;22.37;61.88;99724.45;110078;1267;22508;-60
2023/07/16 00:16:38;;;;;;;7.50;1.80;;;;;;;22.34;61.91;99721.80;110044;1273;23439;-60
2023/07/16 00:19:10;;;;;;;6.20;2.10;;;;;;;22.32;61.98;99719.61;110089;1270;22164;-59
2023/07/16 00:21:41;;;;;;;7.80;2.30;;;;;;;22.30;62.15;99718.29;110113;1278;23095;-60
2023/07/16 00:24:12;;;;;;;6.50;1.90;;;;;;;22.26;62.56;99718.77;110073;1271;22662;-60
2023/07/16 00:26:43;;;;;;;5.50;1.70;;;;;;;22.21;62.66;99719.30;110101;1273;22192;-60
2023/07/16 00:29:14;;;;;;;7.10;2.10;;;;;;;22.16;62.98;99712.49;110097;1270;22198;-59
2023/07/16 00:31:44;;;;;;;5.90;1.80;;;;;;;22.12;63.03;99710.50;110070;1271;22146;-58
2023/07/16 00:34:15;;;;;;;8.40;2.20;;;;;;;22.08;63.18;99715.84;110079;1271;23155;-58
2023/07/16 00:36:46;;;;;;;8.40;2.30;;;;;;;22.04;63.39;99711.38;110106;1271;22332;-58
2023/07/16 00:39:17;;;;;;;6.30;1.60;;;;;;;22.00;63.57;99710.45;110130;1263;22233;-59
2023/07/16 00:41:48;;;;;;;6.60;2.00;;;;;;;21.96;63.75;99711.89;110096;1264;22191;-59
2023/07/16 00:44:19;;;;;;;7.40;2.00;;;;;;;21.92;64.01;99715.77;110214;1270;22206;-61
2023/07/16 00:46:50;;;;;;;6.90;2.10;;;;;;;21.87;64.15;99716.48;110155;1273;22198;-60
2023/07/16 00:49:21;;;;;;;6.40;2.10;;;;;;;21.83;64.34;99717.25;110097;1271;22250;-60
2023/07/16 00:51:53;;;;;;;7.10;2.00;;;;;;;21.80;64.45;99710.85;110149;1278;22287;-60
2023/07/16 00:54:24;;;;;;;11.40;2.00;;;;;;;21.76;64.61;99712.57;110143;1264;22104;-58
2023/07/16 00:56:55;;;;;;;12.30;2.90;;;;;;;21.72;64.74;99709.54;110141;1274;22185;-60
2023/07/16 00:59:26;;;;;;;6.50;2.20;;;;;;;21.70;64.90;99705.83;110092;1273;22923;-59
2023/07/16 01:01:57;;;;;;;7.70;2.50;;;;;;;21.67;65.03;99708.67;110069;1263;23040;-59
2023/07/16 01:04:28;;;;;;;6.40;2.00;;;;;;;21.65;65.36;99708.48;110103;1262;22366;-58
2023/07/16 01:07:05;;;;;;;10.60;2.30;;;;;;;21.62;65.52;99705.41;110133;1278;22273;-59
2023/07/16 01:09:40;;;;;;;10.50;2.70;;;;;;;21.58;65.60;99705.83;110084;1278;22237;-60
2023/07/16 01:12:12;;;;;;;8.80;2.30;;;;;;;21.55;65.84;99709.83;110114;1264;22856;-58
2023/07/16 01:14:43;;;;;;;10.60;2.80;;;;;;;21.52;65.96;99704.54;110096;1267;23126;-58
2023/07/16 01:17:14;;;;;;;7.20;1.90;;;;;;;21.49;66.09;99702.39;110100;1263;22252;-61
2023/07/16 01:19:45;;;;;;;8.00;2.20;;;;;;;21.47;66.13;99703.33;110088;1264;22174;-59
2023/07/16 01:22:29;;;;;;;6.40;1.80;;;;;;;21.45;66.24;99700.42;110106;1271;22247;-60
2023/07/16 01:25:21;;;;;;;10.70;2.30;;;;;;;21.43;66.52;99696.75;110118;1278;22257;-59
2023/07/16 01:28:22;;;;;;;7.70;1.60;;;;;;;21.40;66.53;99688.49;110097;1278;23071;-58
2023/07/16 01:30:56;;;;;;;5.00;1.70;;;;;;;21.38;66.80;99685.55;110082;1278;22268;-63
2023/07/16 01:33:28;;;;;;;7.40;2.20;;;;;;;21.35;66.82;99684.42;110067;1273;22294;-60
2023/07/16 01:36:00;;;;;;;7.50;2.30;;;;;;;21.33;66.99;99681.98;110095;1270;23080;-60
2023/07/16 01:38:31;;;;;;;9.10;2.00;;;;;;;21.29;67.29;99677.88;110091;1274;22232;-60
2023/07/16 01:41:02;;;;;;;9.10;2.30;;;;;;;21.26;67.37;99684.31;110116;1275;22321;-58
2023/07/16 01:43:33;;;;;;;8.30;2.10;;;;;;;21.23;67.43;99684.20;110092;1270;22179;-61
2023/07/16 01:46:05;;;;;;;8.60;2.20;;;;;;;21.21;67.69;99682.99;110116;1275;23147;-59
2023/07/16 01:48:37;;;;;;;5.70;1.90;;;;;;;21.18;67.70;99681.17;110110;1278;22175;-59
2023/07/16 01:51:08;;;;;;;6.10;2.00;;;;;;;21.18;67.74;99680.73;110128;1266;22436;-59
2023/07/16 01:53:39;;;;;;;6.50;1.70;;;;;;;21.18;67.95;99676.71;110105;1270;22850;-60
2023/07/16 01:56:10;;;;;;;5.50;1.60;;;;;;;21.16;68.09;99679.51;110131;1273;22170;-60
2023/07/16 01:58:41;;;;;;;8.50;1.50;;;;;;;21.14;68.18;99677.30;110080;1274;22217;-59
2023/07/16 02:01:12;;;;;;;7.40;1.90;;;;;;;21.12;68.27;99673.19;110092;1271;22356;-58
2023/07/16 02:03:43;;;;;;;9.40;2.30;;;;;;;21.10;68.24;99666.06;110120;1278;22215;-59
2023/07/16 02:06:14;;;;;;;6.50;1.90;;;;;;;21.09;68.44;99661.14;110116;1271;22208;-60
2023/07/16 02:08:45;;;;;;;6.60;1.90;;;;;;;21.06;68.83;99664.36;110106;1273;22227;-60
2023/07/16 02:11:16;;;;;;;6.30;1.80;;;;;;;21.03;68.89;99672.45;110128;1264;22199;-61
2023/07/16 02:13:47;;;;;;;6.40;1.90;;;;;;;21.01;68.79;99670.64;110107;1266;22863;-60
2023/07/16 02:16:17;;;;;;;7.40;1.70;;;;;;;21.00;68.85;99667.27;110076;1271;22338;-58
2023/07/16 02:18:48;;;;;;;5.40;1.80;;;;;;;20.97;69.18;99670.21;110123;1277;22148;-60
2023/07/16 02:21:19;;;;;;;7.50;2.30;;;;;;;20.94;69.44;99671.35;110092;1276;23169;-60
2023/07/16 02:23:50;;;;;;;5.60;1.70;;;;;;;20.91;69.62;99675.69;110111;1272;22134;-59
2023/07/16 02:26:21;;;;;;;5.10;2.00;;;;;;;20.86;69.86;99676.81;110094;1273;22216;-58
2023/07/16 02:28:52;;;;;;;7.20;2.00;;;;;;;20.83;69.94;99678.48;110119;1271;23085;-58
2023/07/16 02:31:22;;;;;;;7.00;2.00;;;;;;;20.79;70.30;99683.95;110050;1263;22293;-59
2023/07/16 02:33:53;;;;;;;7.20;2.40;;;;;;;20.72;70.52;99686.39;110103;1278;23331;-58
2023/07/16 02:36:24;;;;;;;7.30;2.30;;;;;;;20.65;70.96;99691.80;110125;1273;22252;-61
2023/07/16 02:38:55;;;;;;;8.70;2.10;;;;;;;20.56;71.26;99696.16;110078;1264;23337;-59
2023/07/16 02:41:26;;;;;;;9.50;2.20;;;;;;;20.50;71.40;99699.80;110085;1264;22294;-58
2023/07/16 02:44:05;;;;;;;6.90;2.10;;;;;;;20.47;71.47;99707.44;110097;1278;22172;-59
2023/07/16 02:46:36;;;;;;;6.80;1.70;;;;;;;20.40;71.54;99719.64;110095;1273;22221;-58
2023/07/16 02:49:07;;;;;;;8.00;2.30;;;;;;;20.36;71.75;99725.86;110100;1267;22190;-58
2023/07/16 02:51:38;;;;;;;9.60;1.90;;;;;;;20.23;72.09;99732.98;110121;1273;22878;-59
2023/07/16 02:54:09;;;;;;;9.50;2.00;;;;;;;20.06;72.24;99737.08;110117;1264;22225;-60
2023/07/16 02:56:40;;;;;;;7.00;1.90;;;;;;;19.95;72.81;99739.77;110109;1278;22197;-57
2023/07/16 02:59:11;;;;;;;8.80;2.50;;;;;;;19.83;72.81;99749.17;110140;1271;22182;-60
2023/07/16 03:01:42;;;;;;;6.90;1.90;;;;;;;19.82;72.90;99744.53;110122;1264;22244;-60
2023/07/16 03:04:13;;;;;;;12.50;3.20;;;;;;;19.85;72.99;99733.53;110080;1267;22961;-60
2023/07/16 03:06:44;;;;;;;9.40;2.70;;;;;;;19.86;73.14;99729.84;110112;1267;22171;-59
2023/07/16 03:09:15;;;;;;;7.90;2.20;;;;;;;19.86;73.25;99727.95;110091;1271;22352;-60
2023/07/16 03:11:46;;;;;;;10.30;1.90;;;;;;;19.86;73.28;99732.52;110099;1273;22211;-60
2023/07/16 03:14:16;;;;;;;14.60;2.50;;;;;;;19.88;73.69;99738.50;110092;1270;22243;-58
2023/07/16 03:16:48;;;;;;;8.40;2.20;;;;;;;19.87;73.96;99747.45;110115;1267;22149;-60
2023/07/16 03:19:18;;;;;;;9.00;2.20;;;;;;;19.86;74.07;99753.14;110052;1271;22393;-58
2023/07/16 03:21:50;;;;;;;8.90;2.40;;;;;;;19.85;73.95;99754.52;110106;1270;22153;-58
2023/07/16 03:24:21;;;;;;;5.60;2.10;;;;;;;19.88;73.94;99741.06;110082;1273;22351;-59
2023/07/16 03:26:51;;;;;;;6.80;1.70;;;;;;;19.90;73.99;99736.63;110136;1273;22259;-60
2023/07/16 03:29:22;;;;;;;7.60;2.30;;;;;;;19.92;74.47;99748.73;110088;1273;22169;-58
2023/07/16 03:31:53;;;;;;;7.80;2.10;;;;;;;19.94;74.51;99755.85;110132;1271;23243;-60
2023/07/16 03:34:24;;;;;;;10.10;2.20;;;;;;;19.95;74.73;99757.56;110115;1274;23474;-59
2023/07/16 03:36:55;;;;;;;8.50;2.40;;;;;;;19.97;75.16;99767.46;110063;1264;22430;-60
2023/07/16 03:39:26;;;;;;;14.00;3.30;;;;;;;19.98;75.15;99774.00;110071;1272;22297;-60
2023/07/16 03:41:57;;;;;;;7.30;2.40;;;;;;;20.01;75.56;99790.27;110127;1278;22230;-59
2023/07/16 03:44:28;;;;;;;7.80;2.50;;;;;;;20.02;76.13;99821.87;110049;1264;23032;-59
2023/07/16 03:46:58;;;;;;;6.70;2.10;;;;;;;20.03;76.57;99873.48;110096;1270;23220;-58
2023/07/16 03:49:29;;;;;;;8.70;2.20;;;;;;;20.01;76.66;99895.30;110094;1274;22427;-60
2023/07/16 03:52:00;;;;;;;9.40;2.30;;;;;;;20.04;76.91;99896.27;110155;1273;22255;-61
2023/07/16 03:54:31;;;;;;;10.60;2.20;;;;;;;20.10;77.19;99897.05;110147;1265;22192;-60
2023/07/16 03:57:02;;;;;;;10.10;3.00;;;;;;;20.19;76.95;99878.95;110114;1278;22406;-58
2023/07/16 03:59:34;;;;;;;7.50;2.30;;;;;;;20.27;77.73;99883.42;110105;1278;22209;-61
2023/07/16 04:02:05;;;;;;;10.00;2.40;;;;;;;20.33;78.16;99906.85;110047;1273;22247;-61
2023/07/16 04:04:36;;;;;;;7.00;2.10;;;;;;;20.40;78.39;99911.41;110126;1267;23628;-59
2023/07/16 04:07:07;;;;;;;10.30;2.70;;;;;;;20.48;78.56;99906.16;110058;1271;22253;-60
2023/07/16 04:09:41;;;;;;;7.90;2.50;;;;;;;20.54;78.75;99914.13;110097;1267;22188;-60
2023/07/16 04:12:12;;;;;;;8.70;2.80;;;;;;;20.61;78.72;99923.90;110111;1263;22384;-59
2023/07/16 04:14:43;;;;;;;6.50;2.30;;;;;;;20.68;78.97;99932.23;110099;1278;22221;-60
2023/07/16 04:17:14;;;;;;;8.90;2.90;;;;;;;20.75;79.02;99937.23;110125;1267;22126;-59
2023/07/16 04:19:45;;;;;;;12.10;2.70;;;;;;;20.82;79.13;99945.23;110093;1274;22281;-60
2023/07/16 04:22:16;;;;;;;10.30;2.90;;;;;;;20.90;78.98;99935.63;110088;1271;22245;-58
2023/07/16 04:24:47;;;;;;;9.70;2.80;;;;;;;20.97;78.93;99929.39;110121;1274;22174;-59
2023/07/16 04:27:18;;;;;;;6.90;2.40;;;;;;;21.04;78.80;99937.17;110134;1262;22262;-58
2023/07/16 04:29:49;;;;;;;8.70;2.30;;;;;;;21.12;78.94;99943.51;110137;1277;22381;-61
2023/07/16 04:32:20;;;;;;;8.10;2.30;;;;;;;21.20;78.93;99953.24;110125;1266;22219;-59
2023/07/16 04:34:51;;;;;;;11.40;2.60;;;;;;;21.29;79.07;99967.25;110130;1263;22249;-61
2023/07/16 04:37:22;;;;;;;7.30;2.30;;;;;;;21.40;79.18;99972.16;110129;1264;22200;-58
2023/07/16 04:39:53;;;;;;;9.80;2.80;;;;;;;21.53;79.04;99983.58;110058;1269;23001;-60
2023/07/16 04:42:23;;;;;;;8.90;2.00;;;;;;;21.71;78.64;99983.73;110036;1271;22165;-60
2023/07/16 04:44:54;;;;;;;8.00;1.60;;;;;;;21.94;77.69;99981.85;110113;1278;22345;-61
2023/07/16 04:47:25;;;;;;;8.10;2.10;;;;;;;22.18;76.49;99982.20;110102;1270;23074;-59
2023/07/16 04:49:56;;;;;;;11.20;1.50;;;;;;;22.42;75.58;99985.05;110123;1263;22177;-58
2023/07/16 04:52:27;;;;;;;9.70;2.00;;;;;;;22.62;74.94;99990.70;110097;1263;22254;-59
2023/07/16 04:54:58;;;;;;;6.10;1.80;;;;;;;22.80;74.62;99992.17;110113;1270;23119;-59
2023/07/16 04:57:29;;;;;;;6.50;1.60;;;;;;;22.95;74.18;99995.41;109426;1250;79135;-85
2023/07/16 05:00:00;;;;;;;9.60;2.10;;;;;;;23.08;73.65;99995.52;108513;1270;23546;-85
2023/07/16 05:02:31;;;;;;;9.50;1.90;;;;;;;23.21;72.77;100001.08;108561;1271;22705;-85
2023/07/16 05:05:01;;;;;;;12.20;2.10;;;;;;;23.34;72.47;100006.10;108487;1271;23912;-85
2023/07/16 05:07:33;;;;;;;7.30;1.40;;;;;;;23.47;71.99;100009.08;108479;1266;23446;-85
2023/07/16 05:10:25;;;;;;;7.00;1.80;;;;;;;23.61;71.34;100022.88;108563;1273;22562;-85
2023/07/16 05:12:57;;;;;;;8.50;2.00;;;;;;;23.71;70.81;100025.64;108433;1267;23154;-85
2023/07/16 05:15:28;;;;;;;6.90;1.60;;;;;;;23.81;70.19;100026.17;108482;1270;22601;-85
2023/07/16 05:17:59;;;;;;;7.30;1.60;;;;;;;23.91;70.06;100029.50;108384;1270;22544;-85
2023/07/16 05:20:30;;;;;;;7.20;1.70;;;;;;;24.01;69.65;100037.41;108473;1273;24247;-85
2023/07/16 05:23:01;;;;;;;8.70;2.70;;;;;;;24.11;68.74;100039.55;108375;1270;22474;-85
2023/07/16 05:25:32;;;;;;;8.60;1.80;;;;;;;24.20;68.32;100034.93;108520;1271;22579;-84
2023/07/16 05:28:04;;;;;;;10.40;1.80;;;;;;;24.28;67.88;100040.21;108657;1270;22527;-84
2023/07/16 05:30:35;;;;;;;10.80;1.40;;;;;;;24.37;67.40;100047.84;108623;1277;22558;-85
2023/07/16 05:33:06;;;;;;;7.60;1.50;;;;;;;24.47;66.70;100050.14;108749;1277;24444;-85
2023/07/16 05:35:37;;;;;;;9.20;1.50;;;;;;;24.55;66.00;100048.98;108576;1267;23443;-86
2023/07/16 05:38:08;;;;;;;10.60;1.50;;;;;;;24.61;65.80;100048.73;108737;1271;22531;-84
2023/07/16 05:40:39;;;;;;;10.30;1.50;;;;;;;24.71;65.42;100047.53;108800;1271;22650;-85
2023/07/16 05:43:09;;;;;;;9.60;1.70;;;;;;;24.80;65.04;100047.25;108674;1270;24050;-86
2023/07/16 05:45:40;;;;;;;6.70;1.30;;;;;;;24.92;64.90;100049.67;108817;1273;22565;-86
2023/07/16 05:48:11;;;;;;;10.20;1.80;;;;;;;25.04;64.35;100045.72;108929;1270;22515;-87
2023/07/16 05:50:44;;;;;;;7.90;1.40;;;;;;;25.15;63.54;100048.77;109156;1274;22574;-87
2023/07/16 05:53:15;;;;;;;6.80;1.50;;;;;;;25.24;63.17;100050.59;109094;1271;22528;-87
2023/07/16 05:55:46;;;;;;;5.90;1.20;;;;;;;25.31;62.96;100054.90;109125;1271;22472;-87
2023/07/16 05:58:17;;;;;;;6.70;1.20;;;;;;;25.34;62.28;100062.53;109659;1273;22582;-88
2023/07/16 06:00:48;;;;;;;8.40;1.30;;;;;;;25.33;61.36;100060.15;110415;1277;22552;-86
2023/07/16 06:03:20;;;;;;;4.70;1.00;;;;;;;25.32;61.67;100062.93;110441;1270;22588;-85
2023/07/16 06:06:12;;;;;;;7.80;1.00;;;;;;;25.35;61.40;100065.73;109432;1270;22613;-84
2023/07/16 06:08:44;;;;;;;12.00;1.40;;;;;;;25.42;61.45;100071.66;110429;1277;22281;-85
2023/07/16 06:11:16;;;;;;;6.10;1.40;;;;;;;25.53;61.31;100070.91;110407;1269;22167;-86
2023/07/16 06:13:47;;;;;;;6.40;1.10;;;;;;;25.65;60.52;100082.73;109833;1270;24240;-85
2023/07/16 06:16:41;;;;;;;5.00;0.90;;;;;;;25.68;60.33;100084.48;108779;1271;23835;-86
2023/07/16 06:19:14;;;;;;;6.20;1.30;;;;;;;25.70;59.74;100086.35;108522;1277;22523;-85
2023/07/16 06:21:45;;;;;;;3.20;0.90;;;;;;;25.71;59.88;100089.85;108599;1273;22583;-85
2023/07/16 06:24:16;;;;;;;5.50;1.00;;;;;;;25.71;59.05;100095.80;108560;1270;22536;-85
2023/07/16 06:26:47;;;;;;;6.60;0.90;;;;;;;25.71;58.98;100102.08;108373;1254;23317;-85
2023/07/16 06:29:18;;;;;;;7.50;1.30;;;;;;;25.72;58.83;100113.75;108533;1273;22556;-86
2023/07/16 06:31:59;;;;;;;7.30;1.00;;;;;;;25.74;58.82;100113.27;108440;1271;27384;-86
2023/07/16 06:34:30;;;;;;;4.50;0.90;;;;;;;25.81;58.77;100117.08;108336;1270;22559;-85
2023/07/16 06:37:01;;;;;;;6.20;0.80;;;;;;;25.86;58.76;100127.58;108327;1271;22562;-86
2023/07/16 06:39:33;;;;;;;6.90;1.10;;;;;;;25.88;58.51;100134.34;108536;1273;22543;-85
2023/07/16 06:42:04;;;;;;;3.30;1.10;;;;;;;25.88;58.28;100135.15;108438;1260;22539;-80
2023/07/16 06:44:38;;;;;;;7.60;1.00;;;;;;;25.88;58.10;100136.44;108419;1271;22534;-79
2023/07/16 06:47:09;;;;;;;3.00;1.00;;;;;;;25.86;57.86;100136.81;108767;1276;22659;-81
2023/07/16 06:49:40;;;;;;;6.90;0.90;;;;;;;25.82;57.69;100140.77;108616;1270;22558;-81
2023/07/16 06:52:22;;;;;;;3.60;0.80;;;;;;;25.78;57.74;100135.33;108606;1270;22543;-80
2023/07/16 06:54:58;;;;;;;4.00;0.80;;;;;;;25.76;57.56;100135.05;110173;1270;22324;-80
2023/07/16 06:57:33;;;;;;;4.20;0.90;;;;;;;25.78;57.74;100140.59;110268;1270;22343;-80
2023/07/16 07:00:13;;;;;;;6.40;1.00;;;;;;;25.81;57.51;100139.98;110222;1270;22195;-80
2023/07/16 07:02:44;;;;;;;4.60;0.90;;;;;;;25.85;57.48;100143.19;110225;1269;22284;-81
2023/07/16 07:05:15;;;;;;;2.80;0.90;;;;;;;25.89;57.56;100150.23;110239;1270;22447;-81
2023/07/16 07:07:47;;;;;;;3.60;1.00;;;;;;;25.93;57.50;100161.13;110221;1270;22357;-81
2023/07/16 07:10:18;;;;;;;5.20;1.00;;;;;;;25.95;57.54;100159.48;110167;1270;22162;-80
2023/07/16 07:13:13;;;;;;;;;;;;;;;;;;;;;
2023/07/16 07:16:16;;;;;;;2.80;0.80;;;;;;;25.97;57.18;100165.07;110268;1270;22356;-80
2023/07/16 07:18:47;;;;;;;4.90;0.90;;;;;;;25.99;57.16;100164.95;110242;1277;22285;-81
2023/07/16 07:21:18;;;;;;;8.80;0.80;;;;;;;26.01;57.07;100166.04;110257;1271;22144;-81
2023/07/16 07:23:49;;;;;;;4.20;0.90;;;;;;;26.03;56.57;100163.04;110279;1277;22148;-81
2023/07/16 07:26:20;;;;;;;2.80;0.80;;;;;;;26.02;56.57;100163.66;110232;1270;23175;-81
2023/07/16 07:28:51;;;;;;;4.70;1.00;;;;;;;26.02;56.30;100162.52;110195;1261;22549;-82
2023/07/16 07:31:21;;;;;;;3.90;0.70;;;;;;;26.04;56.32;100166.65;110266;1271;22213;-81
2023/07/16 07:33:54;;;;;;;2.50;0.60;;;;;;;26.07;56.17;100163.20;110227;1273;22968;-80
2023/07/16 07:36:26;;;;;;;2.70;0.60;;;;;;;26.09;56.00;100166.30;110220;1277;22139;-80
2023/07/16 07:39:10;;;;;;;3.30;0.80;;;;;;;26.13;56.17;100163.19;110219;1273;22312;-81
2023/07/16 07:41:49;;;;;;;2.10;0.60;;;;;;;26.19;55.99;100158.38;110287;1277;22396;-80
2023/07/16 07:44:20;;;;;;;1.50;0.40;;;;;;;26.25;55.81;100161.45;110276;1271;22301;-80
2023/07/16 07:46:51;;;;;;;2.30;0.60;;;;;;;26.29;55.73;100155.78;110236;1271;22123;-80
2023/07/16 07:49:23;;;;;;;3.90;0.60;;;;;;;26.39;55.87;100149.85;110253;1270;23219;-80
2023/07/16 07:51:58;;;;;;;3.30;0.60;;;;;;;26.50;55.47;100145.19;110224;1271;22241;-81
2023/07/16 07:54:29;;;;;;;2.40;0.70;;;;;;;26.56;55.08;100146.38;110257;1270;22299;-83
2023/07/16 07:57:09;;;;;;;3.30;0.60;;;;;;;26.62;54.57;100152.48;110177;1277;22236;-79
2023/07/16 07:59:59;;;;;;;;;;;;;;;;;;;;;
2023/07/16 08:02:32;;;;;;;3.70;0.60;;;;;;;26.82;54.42;100162.19;110220;1271;22213;-80
2023/07/16 08:05:03;;;;;;;3.10;0.50;;;;;;;26.90;54.23;100161.43;110304;1270;22157;-81
2023/07/16 08:07:34;;;;;;;1.30;0.40;;;;;;;26.93;53.41;100153.27;110318;1271;22151;-80
2023/07/16 08:10:06;;;;;;;4.80;0.60;;;;;;;26.97;53.69;100147.26;110194;1271;22345;-81
2023/07/16 08:12:37;;;;;;;2.80;0.40;;;;;;;27.07;53.41;100149.02;110178;1274;22330;-81
2023/07/16 08:15:13;;;;;;;3.50;0.50;;;;;;;27.18;53.58;100140.16;110180;1270;22732;-79
2023/07/16 08:17:46;;;;;;;2.40;0.50;;;;;;;27.29;53.39;100134.17;110272;1273;22141;-80
2023/07/16 08:20:16;;;;;;;3.80;0.50;;;;;;;27.40;53.09;100129.72;110260;1273;22215;-79
2023/07/16 08:22:47;;;;;;;4.30;0.60;;;;;;;27.46;52.73;100128.92;110259;1273;22200;-78
2023/07/16 08:25:18;;;;;;;2.50;0.50;;;;;;;27.52;52.61;100130.65;110179;1269;22165;-78
2023/07/16 08:27:49;;;;;;;2.70;0.50;;;;;;;27.61;52.31;100126.78;110253;1271;22294;-78
2023/07/16 08:30:20;;;;;;;4.00;0.70;;;;;;;27.74;52.55;100124.05;110273;1270;22273;-78
2023/07/16 08:32:51;;;;;;;4.00;0.40;;;;;;;27.94;52.32;100128.12;110340;1277;22219;-79
2023/07/16 08:35:22;;;;;;;2.40;0.40;;;;;;;28.08;51.53;100128.14;110292;1276;22370;-81
2023/07/16 08:37:52;;;;;;;5.20;0.60;;;;;;;28.15;51.52;100127.44;110196;1273;22874;-83
2023/07/16 08:40:23;;;;;;;3.60;0.40;;;;;;;28.20;50.76;100128.19;110234;1271;22899;-82
2023/07/16 08:42:55;;;;;;;2.50;0.40;;;;;;;28.21;50.71;100131.88;110253;1276;22395;-82
2023/07/16 08:45:29;;;;;;;2.70;0.60;;;;;;;28.23;50.70;100126.04;110251;1270;22178;-83
2023/07/16 08:48:00;;;;;;;2.30;0.40;;;;;;;28.24;50.48;100124.21;109243;1269;24209;-83
2023/07/16 08:50:32;;;;;;;2.20;0.60;;;;;;;28.25;50.17;100117.80;108482;1271;23609;-82
2023/07/16 08:53:04;;;;;;;3.00;0.50;;;;;;;28.27;50.20;100112.34;108655;1277;23340;-81
2023/07/16 08:55:38;;;;;;;1.60;0.50;;;;;;;28.30;50.23;100110.16;108649;1271;24218;-81
2023/07/16 08:58:09;;;;;;;1.70;0.50;;;;;;;28.36;49.98;100105.28;108914;1270;22543;-81
2023/07/16 09:00:40;;;;;;;1.20;0.40;;;;;;;28.39;49.59;100104.46;108654;1271;22572;-81
2023/07/16 09:03:11;;;;;;;2.20;0.50;;;;;;;28.40;49.68;100099.95;108714;1270;22486;-80
2023/07/16 09:05:42;;;;;;;4.40;0.60;;;;;;;28.44;49.50;100101.27;108615;1265;22626;-81
2023/07/16 09:08:13;;;;;;;2.40;0.50;;;;;;;28.47;49.45;100097.48;108770;1270;22613;-81
2023/07/16 09:10:44;;;;;;;2.40;0.40;;;;;;;28.50;49.87;100100.71;108835;1272;22491;-81
2023/07/16 09:13:20;;;;;;;3.30;0.60;;;;;;;28.49;49.41;100101.81;108682;1262;22859;-80
2023/07/16 09:15:55;;;;;;;2.30;0.60;;;;;;;28.41;48.96;100099.60;108678;1271;22527;-80
2023/07/16 09:18:27;;;;;;;2.10;0.60;;;;;;;28.32;49.01;100101.95;108617;1270;22554;-80
2023/07/16 09:21:01;;;;;;;1.50;0.40;;;;;;;28.23;49.27;100124.10;108427;1271;25454;-80
2023/07/16 09:23:33;;;;;;;3.20;0.50;;;;;;;28.11;49.35;100142.42;108228;1276;23337;-79
2023/07/16 09:26:04;;;;;;;5.10;0.50;;;;;;;28.01;49.70;100143.56;108432;1270;22723;-80
2023/07/16 09:28:36;;;;;;;6.00;0.60;;;;;;;27.94;50.07;100135.86;108448;1254;22562;-80
2023/07/16 09:31:12;;;;;;;2.60;0.50;;;;;;;27.92;51.16;100109.61;108517;1271;22485;-80
2023/07/16 09:34:13;;;;;;;3.40;0.70;;;;;;;27.92;53.01;100093.38;108301;1275;22538;-80
2023/07/16 09:36:44;;;;;;;4.30;1.00;;;;;;;27.83;54.70;100098.17;107938;1264;22662;-79
2023/07/16 09:39:19;;;;;;;4.10;0.80;;;;;;;27.76;56.27;100093.19;108452;1274;22570;-79
2023/07/16 09:42:06;;;;;;;2.50;0.60;;;;;;;27.64;56.89;100095.72;108180;1278;22629;-80
2023/07/16 09:44:38;;;;;;;3.20;0.70;;;;;;;27.56;58.37;100100.39;108252;1279;22600;-79
2023/07/16 09:47:09;;;;;;;5.90;0.90;;;;;;;27.53;58.59;100099.30;108496;1267;22555;-79
2023/07/16 09:49:50;;;;;;;;;;;;;;;;;;;;;
2023/07/16 09:52:22;;;;;;;1.70;0.60;;;;;;;27.70;59.20;100111.65;107944;1277;22546;-79
2023/07/16 09:54:56;;;;;;;4.50;0.80;;;;;;;27.82;58.72;100118.89;108235;1277;25247;-79
2023/07/16 09:57:35;;;;;;;2.30;0.60;;;;;;;27.92;57.44;100120.39;108188;1271;26288;-79
2023/07/16 10:00:07;;;;;;;;;;;;;;;28.01;57.58;100122.82;108215;1274;22520;-79
2023/07/16 10:02:40;;;;;;;2.90;0.90;;;;;;;28.12;57.13;100121.70;108080;1267;22693;-79
2023/07/16 10:05:18;;;;;;;1.60;0.60;;;;;;;28.24;56.96;100124.16;110321;1271;22198;-79
2023/07/16 10:08:18;;;;;;;5.10;0.50;;;;;;;28.33;56.40;100129.34;110305;1270;22108;-79
2023/07/16 10:10:56;;;;;;;2.50;0.70;;;;;;;28.45;56.70;100138.79;110283;1271;23122;-80
2023/07/16 10:13:29;;;;;;;3.10;0.70;;;;;;;28.52;55.45;100152.59;110290;1272;22349;-79
2023/07/16 10:16:01;;;;;;;3.80;0.70;;;;;;;28.55;55.05;100151.63;110371;1273;22185;-79
2023/07/16 10:18:34;;;;;;;3.00;0.70;;;;;;;28.61;55.32;100161.31;110339;1267;22966;-80
2023/07/16 10:21:07;;;;;;;2.70;0.70;;;;;;;28.68;54.88;100158.77;110270;1274;22334;-80
2023/07/16 10:23:43;;;;;;;3.30;0.50;;;;;;;28.73;54.40;100165.04;110250;1277;23110;-80
2023/07/16 10:26:16;;;;;;;2.40;0.60;;;;;;;28.74;54.02;100172.55;110140;1271;22204;-78
2023/07/16 10:28:47;;;;;;;2.20;0.60;;;;;;;28.71;54.02;100171.78;110218;1270;22283;-78
2023/07/16 10:31:24;;;;;;;2.20;0.50;;;;;;;28.67;53.59;100171.05;110273;1276;23016;-78
2023/07/16 10:34:05;;;;;;;2.60;0.70;;;;;;;28.61;53.26;100172.73;110217;1271;22235;-78
2023/07/16 10:36:44;;;;;;;7.80;0.60;;;;;;;28.54;53.42;100175.84;110297;1270;22292;-77
2023/07/16 10:39:16;;;;;;;2.00;0.60;;;;;;;28.48;53.04;100176.23;110198;1268;22350;-78
2023/07/16 10:41:47;;;;;;;2.30;0.60;;;;;;;28.40;52.90;100180.66;110261;1270;22155;-78
2023/07/16 10:44:18;;;;;;;5.30;0.50;;;;;;;28.36;52.81;100174.23;110232;1271;22205;-78
2023/07/16 10:46:48;;;;;;;2.70;0.60;;;;;;;28.33;52.65;100174.08;110173;1266;22591;-77
2023/07/16 10:49:29;;;;;;;4.80;0.70;;;;;;;28.23;52.37;100175.95;110176;1272;22368;-77
2023/07/16 10:52:02;;;;;;;3.60;0.70;;;;;;;28.14;52.51;100173.23;110208;1267;22211;-80
2023/07/16 10:54:33;;;;;;;2.10;0.70;;;;;;;28.08;52.79;100174.65;110217;1274;22343;-79
2023/07/16 10:57:06;;;;;;;5.40;0.70;;;;;;;28.06;53.03;100182.00;110181;1277;22251;-79
2023/07/16 10:59:40;;;;;;;2.40;1.00;;;;;;;28.03;53.26;100189.52;110221;1277;22199;-76
2023/07/16 11:02:15;;;;;;;5.50;0.70;;;;;;;28.00;53.31;100202.88;110209;1274;22374;-76
2023/07/16 11:04:48;;;;;;;4.10;1.00;;;;;;;27.67;53.54;100200.91;110221;1277;23457;-79
2023/07/16 11:07:19;;;;;;;6.30;0.80;;;;;;;27.25;54.22;100211.79;110169;1271;22478;-79
2023/07/16 11:10:02;;;;;;;3.10;0.50;;;;;;;26.92;54.38;100219.52;110198;1277;22936;-79
2023/07/16 11:12:33;;;;;;;3.20;0.70;;;;;;;26.66;54.83;100214.63;110119;1278;22255;-79
2023/07/16 11:15:04;;;;;;;3.00;0.70;;;;;;;26.44;55.30;100210.65;110229;1271;22312;-79
2023/07/16 11:17:38;;;;;;;2.30;0.60;;;;;;;26.31;55.64;100213.75;106111;1274;5407663;-80
2023/07/16 11:20:12;;;;;;;2.40;0.60;;;;;;;26.16;56.12;100218.20;110279;1263;22406;-79
2023/07/16 11:22:42;;;;;;;2.80;0.60;;;;;;;26.02;56.54;100214.58;108721;1271;22608;-77
2023/07/16 11:25:16;;;;;;;7.50;0.50;;;;;;;25.88;56.67;100217.92;107557;1271;24221;-78
2023/07/16 11:27:47;;;;;;;3.50;0.70;;;;;;;25.73;57.22;100212.82;107698;1274;22926;-78
2023/07/16 11:30:23;;;;;;;3.60;0.60;;;;;;;25.60;57.90;100213.20;108319;1270;25082;-80
2023/07/16 11:32:55;;;;;;;3.60;0.60;;;;;;;25.50;58.02;100208.41;107536;1277;22601;-78
2023/07/16 11:35:26;;;;;;;3.50;0.70;;;;;;;25.45;58.33;100220.69;107730;1267;24311;-78
2023/07/16 11:37:57;;;;;;;3.30;0.80;;;;;;;25.42;58.67;100222.45;107694;1270;22642;-78
2023/07/16 11:40:28;;;;;;;3.50;0.60;;;;;;;25.45;58.96;100225.86;107618;1271;25237;-78
2023/07/16 11:43:09;;;;;;;2.80;0.70;;;;;;;25.44;59.00;100227.66;108605;1273;22537;-79
2023/07/16 11:45:40;;;;;;;2.10;0.70;;;;;;;25.46;59.20;100226.85;108320;1277;24269;-79
2023/07/16 11:48:11;;;;;;;3.00;0.70;;;;;;;25.50;59.09;100227.45;108242;1267;23347;-78
2023/07/16 11:50:42;;;;;;;2.70;0.50;;;;;;;25.55;59.04;100233.27;107622;1277;23199;-78